sensor_id;sensor_type;location;lat;lon;timestamp;temperature;humidity
9425;DHT22;17139;52.140;11.636;2022-09-04T00:00:46;14.70;41.60
9425;DHT22;17139;52.140;11.636;2022-09-04T00:03:25;14.70;41.60
9425;DHT22;17139;52.140;11.636;2022-09-04T00:05:55;14.70;41.70
9425;DHT22;17139;52.140;11.636;2022-09-04T00:08:40;14.60;41.60
9425;DHT22;17139;52.140;11.636;2022-09-04T00:11:16;14.70;42.00
9425;DHT22;17139;52.140;11.636;2022-09-04T00:13:54;14.70;41.80
9425;DHT22;17139;52.140;11.636;2022-09-04T00:16:26;14.60;41.80
9425;DHT22;17139;52.140;11.636;2022-09-04T00:18:57;14.50;41.70
9425;DHT22;17139;52.140;11.636;2022-09-04T00:21:34;14.50;41.80
9425;DHT22;17139;52.140;11.636;2022-09-04T00:24:06;14.50;41.80
9425;DHT22;17139;52.140;11.636;2022-09-04T00:26:43;14.40;41.70
9425;DHT22;17139;52.140;11.636;2022-09-04T00:29:21;14.40;41.70
9425;DHT22;17139;52.140;11.636;2022-09-04T00:31:53;15.30;42.90
9425;DHT22;17139;52.140;11.636;2022-09-04T00:34:40;15.20;42.40
9425;DHT22;17139;52.140;11.636;2022-09-04T00:37:13;15.00;41.90
9425;DHT22;17139;52.140;11.636;2022-09-04T00:39:44;14.70;42.00
9425;DHT22;17139;52.140;11.636;2022-09-04T00:42:27;14.50;41.90
9425;DHT22;17139;52.140;11.636;2022-09-04T00:45:11;14.40;42.10
9425;DHT22;17139;52.140;11.636;2022-09-04T00:48:05;14.30;42.20
9425;DHT22;17139;52.140;11.636;2022-09-04T00:50:51;14.20;42.20
9425;DHT22;17139;52.140;11.636;2022-09-04T00:57:02;14.10;42.30
9425;DHT22;17139;52.140;11.636;2022-09-04T00:59:54;14.80;43.10
9425;DHT22;17139;52.140;11.636;2022-09-04T01:02:31;14.50;42.10
9425;DHT22;17139;52.140;11.636;2022-09-04T01:05:04;14.30;42.20
9425;DHT22;17139;52.140;11.636;2022-09-04T01:07:44;14.20;42.30
9425;DHT22;17139;52.140;11.636;2022-09-04T01:10:27;14.10;42.40
9425;DHT22;17139;52.140;11.636;2022-09-04T01:12:59;14.00;42.40
9425;DHT22;17139;52.140;11.636;2022-09-04T01:15:36;14.00;42.40
9425;DHT22;17139;52.140;11.636;2022-09-04T01:18:09;14.40;43.60
9425;DHT22;17139;52.140;11.636;2022-09-04T01:21:02;14.20;42.50
9425;DHT22;17139;52.140;11.636;2022-09-04T01:23:57;14.80;43.50
9425;DHT22;17139;52.140;11.636;2022-09-04T01:26:31;14.40;42.60
9425;DHT22;17139;52.140;11.636;2022-09-04T01:29:12;14.10;42.60
9425;DHT22;17139;52.140;11.636;2022-09-04T01:31:46;13.90;42.70
9425;DHT22;17139;52.140;11.636;2022-09-04T01:34:25;13.80;42.80
9425;DHT22;17139;52.140;11.636;2022-09-04T01:36:59;13.80;42.90
9425;DHT22;17139;52.140;11.636;2022-09-04T01:39:30;13.70;42.80
9425;DHT22;17139;52.140;11.636;2022-09-04T01:42:05;13.90;43.80
9425;DHT22;17139;52.140;11.636;2022-09-04T01:44:34;13.90;42.80
9425;DHT22;17139;52.140;11.636;2022-09-04T01:47:10;13.80;42.80
9425;DHT22;17139;52.140;11.636;2022-09-04T01:49:44;13.70;42.90
9425;DHT22;17139;52.140;11.636;2022-09-04T01:52:27;13.60;42.90
9425;DHT22;17139;52.140;11.636;2022-09-04T01:55:11;13.50;42.90
9425;DHT22;17139;52.140;11.636;2022-09-04T01:57:56;13.40;42.90
9425;DHT22;17139;52.140;11.636;2022-09-04T02:00:27;13.40;43.00
9425;DHT22;17139;52.140;11.636;2022-09-04T02:03:03;13.30;42.90
9425;DHT22;17139;52.140;11.636;2022-09-04T02:05:42;13.30;43.00
9425;DHT22;17139;52.140;11.636;2022-09-04T02:08:28;13.30;43.00
9425;DHT22;17139;52.140;11.636;2022-09-04T02:11:02;13.40;43.60
9425;DHT22;17139;52.140;11.636;2022-09-04T02:13:40;13.30;42.90
9425;DHT22;17139;52.140;11.636;2022-09-04T02:16:14;13.30;43.00
9425;DHT22;17139;52.140;11.636;2022-09-04T02:18:49;13.30;43.00
9425;DHT22;17139;52.140;11.636;2022-09-04T02:21:26;13.20;43.00
9425;DHT22;17139;52.140;11.636;2022-09-04T02:24:02;13.20;43.00
9425;DHT22;17139;52.140;11.636;2022-09-04T02:26:36;13.20;43.00
9425;DHT22;17139;52.140;11.636;2022-09-04T02:29:14;13.10;42.90
9425;DHT22;17139;52.140;11.636;2022-09-04T02:31:50;14.00;44.60
9425;DHT22;17139;52.140;11.636;2022-09-04T02:34:26;13.70;43.00
9425;DHT22;17139;52.140;11.636;2022-09-04T02:36:59;13.50;43.00
9425;DHT22;17139;52.140;11.636;2022-09-04T02:39:35;13.40;43.20
9425;DHT22;17139;52.140;11.636;2022-09-04T02:42:15;13.30;43.20
9425;DHT22;17139;52.140;11.636;2022-09-04T02:44:54;13.20;43.20
9425;DHT22;17139;52.140;11.636;2022-09-04T02:47:30;13.20;43.30
9425;DHT22;17139;52.140;11.636;2022-09-04T02:50:06;13.10;43.20
9425;DHT22;17139;52.140;11.636;2022-09-04T02:52:47;13.10;43.20
9425;DHT22;17139;52.140;11.636;2022-09-04T02:55:27;13.50;44.60
9425;DHT22;17139;52.140;11.636;2022-09-04T02:58:06;13.30;43.30
9425;DHT22;17139;52.140;11.636;2022-09-04T03:00:45;14.00;44.80
9425;DHT22;17139;52.140;11.636;2022-09-04T03:03:17;13.60;43.30
9425;DHT22;17139;52.140;11.636;2022-09-04T03:05:50;13.40;43.40
9425;DHT22;17139;52.140;11.636;2022-09-04T03:08:22;13.20;43.50
9425;DHT22;17139;52.140;11.636;2022-09-04T03:10:56;13.10;43.60
9425;DHT22;17139;52.140;11.636;2022-09-04T03:13:29;13.00;43.60
9425;DHT22;17139;52.140;11.636;2022-09-04T03:16:04;12.90;43.60
9425;DHT22;17139;52.140;11.636;2022-09-04T03:18:50;12.90;43.80
9425;DHT22;17139;52.140;11.636;2022-09-04T03:21:21;12.80;43.80
9425;DHT22;17139;52.140;11.636;2022-09-04T03:23:53;13.00;45.10
9425;DHT22;17139;52.140;11.636;2022-09-04T03:26:25;13.00;43.90
9425;DHT22;17139;52.140;11.636;2022-09-04T03:29:01;12.90;43.90
9425;DHT22;17139;52.140;11.636;2022-09-04T03:31:37;12.80;44.00
9425;DHT22;17139;52.140;11.636;2022-09-04T03:34:23;12.70;44.00
9425;DHT22;17139;52.140;11.636;2022-09-04T03:37:29;12.60;44.00
9425;DHT22;17139;52.140;11.636;2022-09-04T03:40:17;12.60;44.00
9425;DHT22;17139;52.140;11.636;2022-09-04T03:43:02;12.50;44.00
9425;DHT22;17139;52.140;11.636;2022-09-04T03:45:41;13.50;45.50
9425;DHT22;17139;52.140;11.636;2022-09-04T03:48:34;13.20;44.20
9425;DHT22;17139;52.140;11.636;2022-09-04T03:51:08;12.90;44.20
9425;DHT22;17139;52.140;11.636;2022-09-04T03:53:41;12.70;44.20
9425;DHT22;17139;52.140;11.636;2022-09-04T03:56:28;12.60;44.20
9425;DHT22;17139;52.140;11.636;2022-09-04T03:59:03;12.50;44.30
9425;DHT22;17139;52.140;11.636;2022-09-04T04:01:40;12.40;44.30
9425;DHT22;17139;52.140;11.636;2022-09-04T04:07:11;12.30;44.50
9425;DHT22;17139;52.140;11.636;2022-09-04T04:09:49;12.30;44.50
9425;DHT22;17139;52.140;11.636;2022-09-04T04:12:32;12.30;44.60
9425;DHT22;17139;52.140;11.636;2022-09-04T04:15:23;12.30;44.50
9425;DHT22;17139;52.140;11.636;2022-09-04T04:18:11;12.20;44.40
9425;DHT22;17139;52.140;11.636;2022-09-04T04:20:46;12.20;44.50
9425;DHT22;17139;52.140;11.636;2022-09-04T04:26:22;12.20;44.40
9425;DHT22;17139;52.140;11.636;2022-09-04T04:29:09;12.10;44.30
9425;DHT22;17139;52.140;11.636;2022-09-04T04:31:52;12.10;44.40
9425;DHT22;17139;52.140;11.636;2022-09-04T04:37:29;12.20;45.20
9425;DHT22;17139;52.140;11.636;2022-09-04T04:40:05;12.20;44.40
9425;DHT22;17139;52.140;11.636;2022-09-04T04:42:43;12.20;44.40
9425;DHT22;17139;52.140;11.636;2022-09-04T04:45:21;12.20;44.40
9425;DHT22;17139;52.140;11.636;2022-09-04T04:48:27;12.20;44.50
9425;DHT22;17139;52.140;11.636;2022-09-04T04:51:05;12.20;44.40
9425;DHT22;17139;52.140;11.636;2022-09-04T04:53:42;12.10;44.30
9425;DHT22;17139;52.140;11.636;2022-09-04T04:56:16;12.20;44.40
9425;DHT22;17139;52.140;11.636;2022-09-04T04:58:56;13.00;46.50
9425;DHT22;17139;52.140;11.636;2022-09-04T05:01:37;12.80;44.90
9425;DHT22;17139;52.140;11.636;2022-09-04T05:04:12;12.70;44.90
9425;DHT22;17139;52.140;11.636;2022-09-04T05:06:48;12.60;44.80
9425;DHT22;17139;52.140;11.636;2022-09-04T05:09:23;12.50;44.70
9425;DHT22;17139;52.140;11.636;2022-09-04T05:11:58;12.50;44.70
9425;DHT22;17139;52.140;11.636;2022-09-04T05:14:45;12.50;44.70
9425;DHT22;17139;52.140;11.636;2022-09-04T05:17:21;12.50;44.70
9425;DHT22;17139;52.140;11.636;2022-09-04T05:19:56;12.50;44.70
9425;DHT22;17139;52.140;11.636;2022-09-04T05:22:30;12.60;44.70
9425;DHT22;17139;52.140;11.636;2022-09-04T05:25:08;12.60;44.60
9425;DHT22;17139;52.140;11.636;2022-09-04T05:27:52;13.20;46.10
9425;DHT22;17139;52.140;11.636;2022-09-04T05:30:26;13.10;44.80
9425;DHT22;17139;52.140;11.636;2022-09-04T05:32:59;13.00;44.40
9425;DHT22;17139;52.140;11.636;2022-09-04T05:35:34;13.00;44.60
9425;DHT22;17139;52.140;11.636;2022-09-04T05:38:07;13.10;44.60
9425;DHT22;17139;52.140;11.636;2022-09-04T05:40:50;13.10;44.40
9425;DHT22;17139;52.140;11.636;2022-09-04T05:43:27;13.10;44.30
9425;DHT22;17139;52.140;11.636;2022-09-04T05:46:04;13.40;45.40
9425;DHT22;17139;52.140;11.636;2022-09-04T05:48:38;13.50;44.40
9425;DHT22;17139;52.140;11.636;2022-09-04T05:51:40;14.10;45.60
9425;DHT22;17139;52.140;11.636;2022-09-04T05:54:52;14.00;44.30
9425;DHT22;17139;52.140;11.636;2022-09-04T05:57:36;13.70;44.20
9425;DHT22;17139;52.140;11.636;2022-09-04T06:00:09;13.50;44.30
9425;DHT22;17139;52.140;11.636;2022-09-04T06:02:56;13.40;44.30
9425;DHT22;17139;52.140;11.636;2022-09-04T06:05:36;13.50;44.50
9425;DHT22;17139;52.140;11.636;2022-09-04T06:08:16;13.40;44.30
9425;DHT22;17139;52.140;11.636;2022-09-04T06:10:54;14.10;45.80
9425;DHT22;17139;52.140;11.636;2022-09-04T06:13:45;13.90;44.40
9425;DHT22;17139;52.140;11.636;2022-09-04T06:16:32;14.60;45.50
9425;DHT22;17139;52.140;11.636;2022-09-04T06:19:35;14.20;44.40
9425;DHT22;17139;52.140;11.636;2022-09-04T06:22:19;14.70;45.30
9425;DHT22;17139;52.140;11.636;2022-09-04T06:25:19;14.30;44.40
9425;DHT22;17139;52.140;11.636;2022-09-04T06:28:04;14.10;44.50
9425;DHT22;17139;52.140;11.636;2022-09-04T06:30:37;13.90;44.60
9425;DHT22;17139;52.140;11.636;2022-09-04T06:33:29;14.30;45.50
9425;DHT22;17139;52.140;11.636;2022-09-04T06:36:15;15.00;45.30
9425;DHT22;17139;52.140;11.636;2022-09-04T06:38:55;15.30;45.20
9425;DHT22;17139;52.140;11.636;2022-09-04T06:41:41;14.80;44.40
9425;DHT22;17139;52.140;11.636;2022-09-04T06:44:16;15.20;45.20
9425;DHT22;17139;52.140;11.636;2022-09-04T06:46:55;14.90;44.40
9425;DHT22;17139;52.140;11.636;2022-09-04T06:49:35;14.70;44.50
9425;DHT22;17139;52.140;11.636;2022-09-04T06:52:12;15.50;45.10
9425;DHT22;17139;52.140;11.636;2022-09-04T06:54:48;15.40;44.90
9425;DHT22;17139;52.140;11.636;2022-09-04T06:57:35;15.20;44.60
9425;DHT22;17139;52.140;11.636;2022-09-04T07:00:06;15.00;44.50
9425;DHT22;17139;52.140;11.636;2022-09-04T07:02:58;15.80;44.90
9425;DHT22;17139;52.140;11.636;2022-09-04T07:05:33;15.40;44.10
9425;DHT22;17139;52.140;11.636;2022-09-04T07:08:09;15.80;45.20
9425;DHT22;17139;52.140;11.636;2022-09-04T07:10:43;15.60;44.40
9425;DHT22;17139;52.140;11.636;2022-09-04T07:13:33;15.70;45.00
9425;DHT22;17139;52.140;11.636;2022-09-04T07:16:20;15.70;45.20
9425;DHT22;17139;52.140;11.636;2022-09-04T07:19:09;15.60;44.50
9425;DHT22;17139;52.140;11.636;2022-09-04T07:21:46;15.50;44.50
9425;DHT22;17139;52.140;11.636;2022-09-04T07:24:38;15.60;44.60
9425;DHT22;17139;52.140;11.636;2022-09-04T07:27:19;15.70;44.50
9425;DHT22;17139;52.140;11.636;2022-09-04T07:29:56;16.50;45.10
9425;DHT22;17139;52.140;11.636;2022-09-04T07:32:32;16.40;44.70
9425;DHT22;17139;52.140;11.636;2022-09-04T07:35:05;16.20;44.40
9425;DHT22;17139;52.140;11.636;2022-09-04T07:37:39;16.10;44.70
9425;DHT22;17139;52.140;11.636;2022-09-04T07:40:13;16.10;44.70
9425;DHT22;17139;52.140;11.636;2022-09-04T07:42:46;16.10;44.70
9425;DHT22;17139;52.140;11.636;2022-09-04T07:45:23;16.20;44.80
9425;DHT22;17139;52.140;11.636;2022-09-04T07:48:07;16.20;44.80
9425;DHT22;17139;52.140;11.636;2022-09-04T07:50:47;16.30;44.80
9425;DHT22;17139;52.140;11.636;2022-09-04T07:53:25;16.70;45.40
9425;DHT22;17139;52.140;11.636;2022-09-04T07:55:59;16.70;44.50
9425;DHT22;17139;52.140;11.636;2022-09-04T07:59:03;16.60;44.70
9425;DHT22;17139;52.140;11.636;2022-09-04T08:01:49;16.50;44.70
9425;DHT22;17139;52.140;11.636;2022-09-04T08:04:53;16.60;44.80
9425;DHT22;17139;52.140;11.636;2022-09-04T08:07:47;16.60;44.70
9425;DHT22;17139;52.140;11.636;2022-09-04T08:10:27;17.50;45.00
9425;DHT22;17139;52.140;11.636;2022-09-04T08:13:09;17.70;44.70
9425;DHT22;17139;52.140;11.636;2022-09-04T08:15:41;17.40;44.30
9425;DHT22;17139;52.140;11.636;2022-09-04T08:18:27;18.10;44.90
9425;DHT22;17139;52.140;11.636;2022-09-04T08:21:13;17.90;44.50
9425;DHT22;17139;52.140;11.636;2022-09-04T08:24:17;17.60;44.40
9425;DHT22;17139;52.140;11.636;2022-09-04T08:26:54;17.60;44.70
9425;DHT22;17139;52.140;11.636;2022-09-04T08:29:35;18.40;45.50
9425;DHT22;17139;52.140;11.636;2022-09-04T08:32:14;18.40;44.50
9425;DHT22;17139;52.140;11.636;2022-09-04T08:35:07;18.20;44.50
9425;DHT22;17139;52.140;11.636;2022-09-04T08:37:44;18.20;44.60
9425;DHT22;17139;52.140;11.636;2022-09-04T08:40:38;18.20;44.60
9425;DHT22;17139;52.140;11.636;2022-09-04T08:43:43;18.20;44.60
9425;DHT22;17139;52.140;11.636;2022-09-04T08:46:50;18.30;44.60
9425;DHT22;17139;52.140;11.636;2022-09-04T08:49:54;18.60;44.40
9425;DHT22;17139;52.140;11.636;2022-09-04T08:52:44;18.40;44.40
9425;DHT22;17139;52.140;11.636;2022-09-04T08:58:38;18.40;44.60
9425;DHT22;17139;52.140;11.636;2022-09-04T09:04:46;18.50;44.40
9425;DHT22;17139;52.140;11.636;2022-09-04T09:07:42;18.60;44.40
9425;DHT22;17139;52.140;11.636;2022-09-04T09:10:37;19.00;44.30
9425;DHT22;17139;52.140;11.636;2022-09-04T09:16:19;19.80;43.60
9425;DHT22;17139;52.140;11.636;2022-09-04T09:19:10;19.50;43.80
9425;DHT22;17139;52.140;11.636;2022-09-04T09:21:45;19.40;43.90
9425;DHT22;17139;52.140;11.636;2022-09-04T09:27:58;19.20;44.80
9425;DHT22;17139;52.140;11.636;2022-09-04T09:30:38;19.30;44.30
9425;DHT22;17139;52.140;11.636;2022-09-04T09:33:46;19.30;44.30
9425;DHT22;17139;52.140;11.636;2022-09-04T09:40:07;19.90;43.70
9425;DHT22;17139;52.140;11.636;2022-09-04T09:43:00;19.90;44.00
9425;DHT22;17139;52.140;11.636;2022-09-04T09:45:54;19.90;44.10
9425;DHT22;17139;52.140;11.636;2022-09-04T09:51:55;20.80;42.90
9425;DHT22;17139;52.140;11.636;2022-09-04T09:54:56;20.50;43.30
9425;DHT22;17139;52.140;11.636;2022-09-04T09:58:01;21.30;42.80
9425;DHT22;17139;52.140;11.636;2022-09-04T10:00:39;20.90;43.10
9425;DHT22;17139;52.140;11.636;2022-09-04T10:09:57;20.90;43.70
9425;DHT22;17139;52.140;11.636;2022-09-04T10:15:50;21.20;43.50
9425;DHT22;17139;52.140;11.636;2022-09-04T10:25:17;21.40;43.20
9425;DHT22;17139;52.140;11.636;2022-09-04T10:28:09;21.40;43.40
9425;DHT22;17139;52.140;11.636;2022-09-04T10:31:08;21.50;43.40
9425;DHT22;17139;52.140;11.636;2022-09-04T10:33:46;21.60;43.40
9425;DHT22;17139;52.140;11.636;2022-09-04T10:36:22;21.80;43.20
9425;DHT22;17139;52.140;11.636;2022-09-04T10:39:05;22.40;42.10
9425;DHT22;17139;52.140;11.636;2022-09-04T10:42:18;22.40;42.50
9425;DHT22;17139;52.140;11.636;2022-09-04T10:45:14;22.40;42.60
9425;DHT22;17139;52.140;11.636;2022-09-04T10:51:01;22.60;42.70
9425;DHT22;17139;52.140;11.636;2022-09-04T10:53:48;22.70;42.70
9425;DHT22;17139;52.140;11.636;2022-09-04T10:56:21;23.00;41.90
9425;DHT22;17139;52.140;11.636;2022-09-04T10:59:14;23.70;40.70
9425;DHT22;17139;52.140;11.636;2022-09-04T11:05:16;23.80;41.00
9425;DHT22;17139;52.140;11.636;2022-09-04T11:08:09;23.60;41.40
9425;DHT22;17139;52.140;11.636;2022-09-04T11:11:00;23.60;41.70
9425;DHT22;17139;52.140;11.636;2022-09-04T11:13:57;23.60;41.90
9425;DHT22;17139;52.140;11.636;2022-09-04T11:17:03;23.50;42.10
9425;DHT22;17139;52.140;11.636;2022-09-04T11:20:00;23.40;42.20
9425;DHT22;17139;52.140;11.636;2022-09-04T11:23:00;24.10;40.40
9425;DHT22;17139;52.140;11.636;2022-09-04T11:26:15;23.70;41.30
9425;DHT22;17139;52.140;11.636;2022-09-04T11:29:11;23.50;41.90
9425;DHT22;17139;52.140;11.636;2022-09-04T11:31:55;23.30;42.20
9425;DHT22;17139;52.140;11.636;2022-09-04T11:35:11;23.20;42.30
9425;DHT22;17139;52.140;11.636;2022-09-04T11:38:14;23.20;42.40
9425;DHT22;17139;52.140;11.636;2022-09-04T11:41:18;23.20;42.40
9425;DHT22;17139;52.140;11.636;2022-09-04T11:44:26;23.90;41.10
9425;DHT22;17139;52.140;11.636;2022-09-04T11:47:31;23.70;41.70
9425;DHT22;17139;52.140;11.636;2022-09-04T11:50:21;23.50;42.00
9425;DHT22;17139;52.140;11.636;2022-09-04T11:53:08;23.40;42.10
9425;DHT22;17139;52.140;11.636;2022-09-04T11:56:00;23.30;42.10
9425;DHT22;17139;52.140;11.636;2022-09-04T11:58:58;23.30;42.30
9425;DHT22;17139;52.140;11.636;2022-09-04T12:01:48;24.00;40.60
9425;DHT22;17139;52.140;11.636;2022-09-04T12:04:38;24.00;40.60
9425;DHT22;17139;52.140;11.636;2022-09-04T12:07:17;23.80;41.20
9425;DHT22;17139;52.140;11.636;2022-09-04T12:10:05;23.60;41.60
9425;DHT22;17139;52.140;11.636;2022-09-04T12:12:45;23.50;41.80
9425;DHT22;17139;52.140;11.636;2022-09-04T12:15:32;23.40;42.00
9425;DHT22;17139;52.140;11.636;2022-09-04T12:27:36;24.30;40.10
9425;DHT22;17139;52.140;11.636;2022-09-04T12:30:14;24.10;41.00
9425;DHT22;17139;52.140;11.636;2022-09-04T12:33:14;24.10;41.20
9425;DHT22;17139;52.140;11.636;2022-09-04T12:39:16;24.30;41.30
9425;DHT22;17139;52.140;11.636;2022-09-04T12:41:55;24.20;41.60
9425;DHT22;17139;52.140;11.636;2022-09-04T12:44:35;25.00;39.60
9425;DHT22;17139;52.140;11.636;2022-09-04T12:47:16;24.60;40.30
9425;DHT22;17139;52.140;11.636;2022-09-04T12:50:07;24.50;40.90
9425;DHT22;17139;52.140;11.636;2022-09-04T12:52:49;24.40;41.20
9425;DHT22;17139;52.140;11.636;2022-09-04T12:55:23;24.20;41.30
9425;DHT22;17139;52.140;11.636;2022-09-04T12:58:00;24.20;41.40
9425;DHT22;17139;52.140;11.636;2022-09-04T13:00:36;24.20;41.40
9425;DHT22;17139;52.140;11.636;2022-09-04T13:03:13;24.10;41.60
9425;DHT22;17139;52.140;11.636;2022-09-04T13:06:00;24.40;40.20
9425;DHT22;17139;52.140;11.636;2022-09-04T13:08:39;24.30;41.80
9425;DHT22;17139;52.140;11.636;2022-09-04T13:11:26;24.90;39.30
9425;DHT22;17139;52.140;11.636;2022-09-04T13:14:20;24.70;40.40
9425;DHT22;17139;52.140;11.636;2022-09-04T13:16:57;24.50;40.80
9425;DHT22;17139;52.140;11.636;2022-09-04T13:19:33;24.30;41.00
9425;DHT22;17139;52.140;11.636;2022-09-04T13:22:17;24.30;41.30
9425;DHT22;17139;52.140;11.636;2022-09-04T13:24:54;24.20;41.00
9425;DHT22;17139;52.140;11.636;2022-09-04T13:27:45;24.20;41.10
9425;DHT22;17139;52.140;11.636;2022-09-04T13:30:15;24.20;41.40
9425;DHT22;17139;52.140;11.636;2022-09-04T13:33:04;24.70;39.40
9425;DHT22;17139;52.140;11.636;2022-09-04T13:35:53;24.50;40.30
9425;DHT22;17139;52.140;11.636;2022-09-04T13:38:45;24.40;40.80
9425;DHT22;17139;52.140;11.636;2022-09-04T13:41:37;24.30;41.00
9425;DHT22;17139;52.140;11.636;2022-09-04T13:47:12;24.30;41.10
9425;DHT22;17139;52.140;11.636;2022-09-04T13:49:43;24.60;40.00
9425;DHT22;17139;52.140;11.636;2022-09-04T13:52:15;24.50;40.60
9425;DHT22;17139;52.140;11.636;2022-09-04T13:54:46;25.00;39.00
9425;DHT22;17139;52.140;11.636;2022-09-04T13:57:18;24.90;40.00
9425;DHT22;17139;52.140;11.636;2022-09-04T13:59:49;24.80;40.40
9425;DHT22;17139;52.140;11.636;2022-09-04T14:02:20;24.80;40.40
9425;DHT22;17139;52.140;11.636;2022-09-04T14:04:52;24.70;40.60
9425;DHT22;17139;52.140;11.636;2022-09-04T14:07:25;24.60;40.70
9425;DHT22;17139;52.140;11.636;2022-09-04T14:09:58;24.50;40.70
9425;DHT22;17139;52.140;11.636;2022-09-04T14:12:39;25.00;39.10
9425;DHT22;17139;52.140;11.636;2022-09-04T14:15:45;24.80;40.20
9425;DHT22;17139;52.140;11.636;2022-09-04T14:18:28;25.30;38.90
9425;DHT22;17139;52.140;11.636;2022-09-04T14:20:59;25.00;39.70
9425;DHT22;17139;52.140;11.636;2022-09-04T14:23:41;25.00;40.20
9425;DHT22;17139;52.140;11.636;2022-09-04T14:26:18;24.90;40.30
9425;DHT22;17139;52.140;11.636;2022-09-04T14:28:53;24.80;40.50
9425;DHT22;17139;52.140;11.636;2022-09-04T14:31:27;24.80;40.40
9425;DHT22;17139;52.140;11.636;2022-09-04T14:34:02;24.70;40.40
9425;DHT22;17139;52.140;11.636;2022-09-04T14:36:34;25.50;38.00
9425;DHT22;17139;52.140;11.636;2022-09-04T14:39:18;25.20;38.90
9425;DHT22;17139;52.140;11.636;2022-09-04T14:41:58;24.90;39.70
9425;DHT22;17139;52.140;11.636;2022-09-04T14:44:43;24.80;40.10
9425;DHT22;17139;52.140;11.636;2022-09-04T14:47:21;24.60;40.30
9425;DHT22;17139;52.140;11.636;2022-09-04T14:49:54;24.60;40.30
9425;DHT22;17139;52.140;11.636;2022-09-04T14:52:24;24.70;40.40
9425;DHT22;17139;52.140;11.636;2022-09-04T14:54:54;24.70;40.40
9425;DHT22;17139;52.140;11.636;2022-09-04T14:57:27;24.80;40.40
9425;DHT22;17139;52.140;11.636;2022-09-04T15:00:04;24.80;40.80
9425;DHT22;17139;52.140;11.636;2022-09-04T15:02:38;25.10;39.00
9425;DHT22;17139;52.140;11.636;2022-09-04T15:05:16;25.00;39.70
9425;DHT22;17139;52.140;11.636;2022-09-04T15:08:04;24.90;40.00
9425;DHT22;17139;52.140;11.636;2022-09-04T15:10:36;24.80;40.10
9425;DHT22;17139;52.140;11.636;2022-09-04T15:13:36;24.60;40.20
9425;DHT22;17139;52.140;11.636;2022-09-04T15:16:15;24.60;40.30
9425;DHT22;17139;52.140;11.636;2022-09-04T15:19:00;24.40;40.30
9425;DHT22;17139;52.140;11.636;2022-09-04T15:21:37;25.00;38.70
9425;DHT22;17139;52.140;11.636;2022-09-04T15:24:14;24.60;39.70
9425;DHT22;17139;52.140;11.636;2022-09-04T15:26:45;24.40;40.20
9425;DHT22;17139;52.140;11.636;2022-09-04T15:29:19;24.30;41.10
9425;DHT22;17139;52.140;11.636;2022-09-04T15:31:58;24.20;40.60
9425;DHT22;17139;52.140;11.636;2022-09-04T15:34:27;24.10;40.70
9425;DHT22;17139;52.140;11.636;2022-09-04T15:37:08;24.00;40.90
9425;DHT22;17139;52.140;11.636;2022-09-04T15:39:38;23.90;40.80
9425;DHT22;17139;52.140;11.636;2022-09-04T15:42:07;24.20;39.70
9425;DHT22;17139;52.140;11.636;2022-09-04T15:44:39;24.00;40.50
9425;DHT22;17139;52.140;11.636;2022-09-04T15:47:14;24.40;39.20
9425;DHT22;17139;52.140;11.636;2022-09-04T15:49:47;24.10;40.00
9425;DHT22;17139;52.140;11.636;2022-09-04T15:52:25;23.90;40.60
9425;DHT22;17139;52.140;11.636;2022-09-04T15:55:03;23.80;40.70
9425;DHT22;17139;52.140;11.636;2022-09-04T15:57:44;23.70;41.30
9425;DHT22;17139;52.140;11.636;2022-09-04T16:00:14;23.70;41.40
9425;DHT22;17139;52.140;11.636;2022-09-04T16:02:49;23.60;41.20
9425;DHT22;17139;52.140;11.636;2022-09-04T16:05:22;24.10;39.30
9425;DHT22;17139;52.140;11.636;2022-09-04T16:07:59;23.90;40.20
9425;DHT22;17139;52.140;11.636;2022-09-04T16:10:41;24.40;38.90
9425;DHT22;17139;52.140;11.636;2022-09-04T16:13:39;24.10;39.80
9425;DHT22;17139;52.140;11.636;2022-09-04T16:16:10;23.90;40.40
9425;DHT22;17139;52.140;11.636;2022-09-04T16:18:55;23.60;40.70
9425;DHT22;17139;52.140;11.636;2022-09-04T16:21:35;23.60;40.90
9425;DHT22;17139;52.140;11.636;2022-09-04T16:24:11;23.40;41.00
9425;DHT22;17139;52.140;11.636;2022-09-04T16:26:39;23.40;41.10
9425;DHT22;17139;52.140;11.636;2022-09-04T16:29:16;23.20;41.10
9425;DHT22;17139;52.140;11.636;2022-09-04T16:31:50;23.50;40.70
9425;DHT22;17139;52.140;11.636;2022-09-04T16:34:20;23.30;41.10
9425;DHT22;17139;52.140;11.636;2022-09-04T16:36:51;23.10;41.20
9425;DHT22;17139;52.140;11.636;2022-09-04T16:39:25;23.80;39.40
9425;DHT22;17139;52.140;11.636;2022-09-04T16:41:58;23.90;38.90
9425;DHT22;17139;52.140;11.636;2022-09-04T16:44:37;23.60;39.60
9425;DHT22;17139;52.140;11.636;2022-09-04T16:47:16;23.40;40.40
9425;DHT22;17139;52.140;11.636;2022-09-04T16:49:51;23.10;40.90
9425;DHT22;17139;52.140;11.636;2022-09-04T16:52:44;23.00;41.00
9425;DHT22;17139;52.140;11.636;2022-09-04T16:55:22;22.90;41.10
9425;DHT22;17139;52.140;11.636;2022-09-04T16:58:04;22.70;41.30
9425;DHT22;17139;52.140;11.636;2022-09-04T17:00:52;22.60;41.30
9425;DHT22;17139;52.140;11.636;2022-09-04T17:03:22;22.60;41.40
9425;DHT22;17139;52.140;11.636;2022-09-04T17:05:52;23.30;39.30
9425;DHT22;17139;52.140;11.636;2022-09-04T17:08:26;23.50;39.00
9425;DHT22;17139;52.140;11.636;2022-09-04T17:11:03;23.60;38.60
9425;DHT22;17139;52.140;11.636;2022-09-04T17:13:41;23.10;39.60
9425;DHT22;17139;52.140;11.636;2022-09-04T17:16:13;22.80;40.40
9425;DHT22;17139;52.140;11.636;2022-09-04T17:18:45;22.50;40.60
9425;DHT22;17139;52.140;11.636;2022-09-04T17:21:19;22.40;41.00
9425;DHT22;17139;52.140;11.636;2022-09-04T17:24:08;22.50;40.50
9425;DHT22;17139;52.140;11.636;2022-09-04T17:26:44;22.20;40.90
9425;DHT22;17139;52.140;11.636;2022-09-04T17:29:16;22.60;39.70
9425;DHT22;17139;52.140;11.636;2022-09-04T17:31:51;22.40;40.50
9425;DHT22;17139;52.140;11.636;2022-09-04T17:34:40;22.20;40.90
9425;DHT22;17139;52.140;11.636;2022-09-04T17:37:12;22.00;41.20
9425;DHT22;17139;52.140;11.636;2022-09-04T17:39:43;21.80;41.40
9425;DHT22;17139;52.140;11.636;2022-09-04T17:42:21;21.70;41.60
9425;DHT22;17139;52.140;11.636;2022-09-04T17:44:55;22.10;40.40
9425;DHT22;17139;52.140;11.636;2022-09-04T17:47:30;21.90;40.90
9425;DHT22;17139;52.140;11.636;2022-09-04T17:49:59;21.60;41.30
9425;DHT22;17139;52.140;11.636;2022-09-04T17:52:29;21.50;41.60
9425;DHT22;17139;52.140;11.636;2022-09-04T17:55:02;21.40;41.70
9425;DHT22;17139;52.140;11.636;2022-09-04T17:57:48;21.30;41.80
9425;DHT22;17139;52.140;11.636;2022-09-04T18:00:22;21.20;41.80
9425;DHT22;17139;52.140;11.636;2022-09-04T18:02:53;21.10;42.10
9425;DHT22;17139;52.140;11.636;2022-09-04T18:05:24;21.60;40.70
9425;DHT22;17139;52.140;11.636;2022-09-04T18:07:55;21.40;41.10